^^
Station Historical Data
 
Daily Summary for September 21, 2017 Units:  English    Metric   Both
« Previous Day
Next Day »
Daily Weekly Monthly Yearly Custom
  Current: High: Low: Average:
Temperature: 72.6 °F 76.4 °F 72.6 °F 73.9 °F
Dew Point: 71.1 °F 72.7 °F 71.1 °F 72 °F
Humidity: 95% 96% 88% 94%
Wind Speed: 0.0mph 0.0mph 0.0mph 0mph
Wind Gust: 0.0mph 0.0mph - -
WindCalm - - North
Pressure: 29.95 in 29.97 in 29.93 in -
Precipitation: 0.00 in      
Historical Graphs
 
 
Tabular Data for September 21, 2017
Time Temperature Dew Point Pressure Wind Wind Speed Wind Gust Humidity Rainfall Rate (Hourly) solar Conditions
00:02 76.4 °F 72.6 °F 29.97 in Calm     88% 0.00 in 0.0 W/m2 CLR
00:07 76.2 °F 72.4 °F 29.97 in Calm     88% 0.00 in 0.0 W/m2 CLR
00:12 76.0 °F 72.5 °F 29.97 in Calm     89% 0.00 in 0.0 W/m2 CLR
00:17 75.8 °F 72.3 °F 29.97 in Calm     89% 0.00 in 0.0 W/m2 CLR
00:22 75.8 °F 72.7 °F 29.97 in Calm     90% 0.00 in 0.0 W/m2 CLR
00:27 75.7 °F 72.6 °F 29.96 in Calm     90% 0.00 in 0.0 W/m2 CLR
00:32 75.5 °F 72.4 °F 29.97 in Calm     90% 0.00 in 0.0 W/m2 CLR
00:37 75.3 °F 72.5 °F 29.96 in Calm     91% 0.00 in 0.0 W/m2 CLR
00:42 75.1 °F 72.6 °F 29.96 in Calm     92% 0.00 in 0.0 W/m2 CLR
00:47 75.1 °F 72.6 °F 29.97 in Calm     92% 0.00 in 0.0 W/m2 CLR
00:52 75.1 °F 72.6 °F 29.96 in Calm     92% 0.00 in 0.0 W/m2 CLR
00:57 75.1 °F 72.6 °F 29.96 in Calm     92% 0.00 in 0.0 W/m2 CLR
01:02 75.0 °F 72.5 °F 29.96 in Calm     92% 0.00 in 0.0 W/m2 CLR
01:07 74.9 °F 72.4 °F 29.96 in Calm     92% 0.00 in 0.0 W/m2 CLR
01:12 74.9 °F 72.4 °F 29.96 in Calm     92% 0.00 in 0.0 W/m2 CLR
01:17 74.7 °F 72.2 °F 29.96 in Calm     92% 0.00 in 0.0 W/m2 CLR
01:22 74.5 °F 72.3 °F 29.97 in Calm     93% 0.00 in 0.0 W/m2 CLR
01:27 74.5 °F 72.3 °F 29.96 in Calm     93% 0.00 in 0.0 W/m2 CLR
01:32 74.5 °F 72.7 °F 29.96 in Calm     94% 0.00 in 0.0 W/m2 CLR
01:37 74.5 °F 72.3 °F 29.96 in Calm     93% 0.00 in 0.0 W/m2 CLR
01:42 74.6 °F 72.4 °F 29.96 in Calm     93% 0.00 in 0.0 W/m2 CLR
01:47 74.5 °F 72.3 °F 29.96 in Calm     93% 0.00 in 0.0 W/m2 CLR
01:52 74.5 °F 72.7 °F 29.97 in Calm     94% 0.00 in 0.0 W/m2 CLR
01:57 74.4 °F 72.2 °F 29.97 in Calm     93% 0.00 in 0.0 W/m2 CLR
02:02 74.2 °F 72.0 °F 29.96 in Calm     93% 0.00 in 0.0 W/m2 CLR
02:07 74.2 °F 72.0 °F 29.96 in Calm     93% 0.00 in 0.0 W/m2 CLR
02:12 74.1 °F 71.9 °F 29.96 in Calm     93% 0.00 in 0.0 W/m2 CLR
02:17 73.9 °F 71.7 °F 29.96 in Calm     93% 0.00 in 0.0 W/m2 CLR
02:22 73.8 °F 72.0 °F 29.96 in Calm     94% 0.00 in 0.0 W/m2 CLR
02:27 73.8 °F 72.0 °F 29.96 in Calm     94% 0.00 in 0.0 W/m2 CLR
02:32 73.8 °F 72.0 °F 29.95 in Calm     94% 0.00 in 0.0 W/m2 CLR
02:37 73.7 °F 71.9 °F 29.95 in Calm     94% 0.00 in 0.0 W/m2 CLR
02:42 73.7 °F 71.9 °F 29.95 in Calm     94% 0.00 in 0.0 W/m2 CLR
02:47 73.8 °F 72.3 °F 29.95 in Calm     95% 0.00 in 0.0 W/m2 CLR
02:52 73.9 °F 72.4 °F 29.95 in Calm     95% 0.00 in 0.0 W/m2 CLR
02:57 73.9 °F 72.1 °F 29.95 in Calm     94% 0.00 in 0.0 W/m2 CLR
03:02 73.8 °F 72.0 °F 29.95 in Calm     94% 0.00 in 0.0 W/m2 CLR
03:07 73.7 °F 71.9 °F 29.94 in Calm     94% 0.00 in 0.0 W/m2 CLR
03:12 73.6 °F 71.8 °F 29.94 in Calm     94% 0.00 in 0.0 W/m2 CLR
03:17 73.6 °F 72.1 °F 29.94 in Calm     95% 0.00 in 0.0 W/m2 CLR
03:27 73.7 °F 72.2 °F 29.94 in Calm     95% 0.00 in 0.0 W/m2 CLR
03:32 73.8 °F 72.3 °F 29.94 in Calm     95% 0.00 in 0.0 W/m2 CLR
03:37 73.7 °F 72.2 °F 29.94 in Calm     95% 0.00 in 0.0 W/m2 CLR
03:42 73.5 °F 71.7 °F 29.94 in Calm     94% 0.00 in 0.0 W/m2 CLR
03:47 73.4 °F 71.9 °F 29.94 in Calm     95% 0.00 in 0.0 W/m2 CLR
03:52 73.4 °F 71.9 °F 29.94 in Calm     95% 0.00 in 0.0 W/m2 CLR
03:57 73.4 °F 71.9 °F 29.94 in Calm     95% 0.00 in 0.0 W/m2 CLR
04:02 73.5 °F 72.0 °F 29.94 in Calm     95% 0.00 in 0.0 W/m2 CLR
04:07 73.6 °F 72.1 °F 29.94 in Calm     95% 0.00 in 0.0 W/m2 CLR
04:12 73.5 °F 72.0 °F 29.94 in Calm     95% 0.00 in 0.0 W/m2 CLR
04:17 73.4 °F 71.9 °F 29.93 in Calm     95% 0.00 in 0.0 W/m2 CLR
04:22 73.4 °F 71.9 °F 29.93 in Calm     95% 0.00 in 0.0 W/m2 CLR
04:27 73.3 °F 71.8 °F 29.93 in Calm     95% 0.00 in 0.0 W/m2 CLR
04:32 73.4 °F 71.9 °F 29.93 in Calm     95% 0.00 in 0.0 W/m2 CLR
04:37 73.4 °F 71.9 °F 29.93 in Calm     95% 0.00 in 0.0 W/m2 CLR
04:42 73.3 °F 71.8 °F 29.93 in Calm     95% 0.00 in 0.0 W/m2 CLR
04:47 73.2 °F 71.7 °F 29.93 in Calm     95% 0.00 in 0.0 W/m2 CLR
04:52 73.2 °F 71.7 °F 29.93 in Calm     95% 0.00 in 0.0 W/m2 CLR
04:57 73.2 °F 71.7 °F 29.93 in Calm     95% 0.00 in 0.0 W/m2 CLR
05:02 73.1 °F 71.6 °F 29.93 in Calm     95% 0.00 in 0.0 W/m2 CLR
05:07 73.0 °F 71.5 °F 29.93 in Calm     95% 0.00 in 0.0 W/m2 CLR
05:12 73.1 °F 71.6 °F 29.93 in Calm     95% 0.00 in 0.0 W/m2 CLR
05:17 72.9 °F 71.4 °F 29.94 in Calm     95% 0.00 in 0.0 W/m2 CLR
05:22 72.8 °F 71.3 °F 29.93 in Calm     95% 0.00 in 0.0 W/m2 CLR
05:27 72.6 °F 71.1 °F 29.93 in Calm     95% 0.00 in 0.0 W/m2 CLR
05:32 72.7 °F 71.5 °F 29.94 in Calm     96% 0.00 in 0.0 W/m2 CLR
05:37 72.7 °F 71.5 °F 29.94 in Calm     96% 0.00 in 0.0 W/m2 CLR
05:42 72.6 °F 71.4 °F 29.94 in Calm     96% 0.00 in 0.0 W/m2 CLR
05:47 72.6 °F 71.4 °F 29.94 in Calm     96% 0.00 in 0.0 W/m2 CLR
05:52 72.6 °F 71.4 °F 29.94 in Calm     96% 0.00 in 0.0 W/m2 CLR
05:57 72.7 °F 71.5 °F 29.94 in Calm     96% 0.00 in 0.0 W/m2 CLR
06:02 72.7 °F 71.5 °F 29.95 in Calm     96% 0.00 in 0.0 W/m2 CLR
06:07 72.7 °F 71.5 °F 29.95 in Calm     96% 0.00 in 0.0 W/m2 CLR
06:12 72.7 °F 71.5 °F 29.95 in Calm     96% 0.00 in 0.0 W/m2 CLR
06:17 72.7 °F 71.5 °F 29.95 in Calm     96% 0.00 in 0.0 W/m2 CLR
06:22 72.6 °F 71.1 °F 29.95 in Calm     95% 0.00 in 0.0 W/m2 CLR
Lake Mary, FL, USA
Compliments of Weather Underground - 1.25 mb